createdAt,value
2022-10-25T00:01:51.433Z,93.70
2022-10-25T00:04:18.610Z,93.80
2022-10-25T00:06:45.512Z,93.70
2022-10-25T00:09:12.543Z,93.70
2022-10-25T00:11:39.858Z,93.70
2022-10-25T00:14:07.920Z,93.80
2022-10-25T00:16:38.942Z,93.80
2022-10-25T00:19:06.494Z,93.90
2022-10-25T00:21:33.438Z,93.90
2022-10-25T00:24:00.323Z,93.80
2022-10-25T00:26:27.210Z,93.90
2022-10-25T00:28:55.871Z,94.00
2022-10-25T00:31:24.619Z,94.00
2022-10-25T00:33:51.787Z,94.30
2022-10-25T00:36:25.489Z,94.00
2022-10-25T00:38:53.240Z,94.10
2022-10-25T00:41:23.991Z,94.10
2022-10-25T00:43:54.288Z,94.10
2022-10-25T00:46:28.190Z,94.10
2022-10-25T00:49:10.998Z,94.10
2022-10-25T00:51:51.370Z,94.10
2022-10-25T00:54:24.396Z,94.10
2022-10-25T00:56:52.943Z,94.10
2022-10-25T00:59:24.850Z,94.10
2022-10-25T01:01:55.035Z,94.10
2022-10-25T01:04:27.574Z,94.10
2022-10-25T01:06:54.770Z,94.10
2022-10-25T01:09:27.776Z,94.10
2022-10-25T01:11:54.664Z,94.20
2022-10-25T01:14:22.591Z,94.10
2022-10-25T01:17:10.286Z,94.20
2022-10-25T01:19:44.622Z,94.30
2022-10-25T01:22:51.360Z,94.30
2022-10-25T01:25:40.563Z,94.50
2022-10-25T01:28:51.371Z,94.50
2022-10-25T01:31:51.021Z,94.50
2022-10-25T01:34:32.056Z,94.60
2022-10-25T01:37:11.950Z,94.60
2022-10-25T01:40:14.103Z,94.70
2022-10-25T01:43:01.208Z,94.70
2022-10-25T01:45:41.772Z,94.70
2022-10-25T01:48:22.315Z,94.70
2022-10-25T01:50:49.475Z,94.80
2022-10-25T01:53:16.360Z,94.70
2022-10-25T01:55:51.879Z,94.70
2022-10-25T01:58:56.169Z,94.70
2022-10-25T02:01:37.862Z,94.90
2022-10-25T02:04:22.531Z,94.80
2022-10-25T02:06:56.143Z,94.90
2022-10-25T02:09:37.084Z,94.80
2022-10-25T02:12:07.190Z,94.80
2022-10-25T02:14:40.293Z,94.80
2022-10-25T02:17:19.718Z,94.80
2022-10-25T02:19:54.539Z,94.80
2022-10-25T02:22:27.491Z,94.80
2022-10-25T02:24:57.664Z,94.80
2022-10-25T02:27:26.002Z,94.70
2022-10-25T02:29:53.863Z,94.70
2022-10-25T02:32:21.450Z,94.70
2022-10-25T02:34:49.372Z,94.70
2022-10-25T02:37:17.143Z,94.80
2022-10-25T02:39:45.514Z,94.80
2022-10-25T02:42:12.651Z,94.80
2022-10-25T02:44:39.562Z,94.80
2022-10-25T02:47:06.471Z,94.80
2022-10-25T02:49:33.412Z,94.80
2022-10-25T02:52:00.323Z,94.70
2022-10-25T02:54:27.209Z,94.70
2022-10-25T02:56:54.170Z,94.70
2022-10-25T02:59:21.396Z,94.80
2022-10-25T03:01:48.679Z,94.70
2022-10-25T03:04:15.724Z,94.70
2022-10-25T03:06:42.624Z,94.70
2022-10-25T03:09:09.516Z,94.70
2022-10-25T03:11:36.409Z,94.80
2022-10-25T03:14:03.296Z,94.70
2022-10-25T03:16:30.227Z,94.70
2022-10-25T03:18:58.459Z,94.80
2022-10-25T03:21:25.930Z,94.80
2022-10-25T03:23:53.038Z,94.80
2022-10-25T03:26:19.981Z,94.80
2022-10-25T03:28:46.866Z,94.90
2022-10-25T03:31:16.668Z,94.90
2022-10-25T03:33:44.007Z,95.00
2022-10-25T03:36:10.925Z,95.10
2022-10-25T03:38:37.802Z,95.20
2022-10-25T03:41:05.162Z,95.30
2022-10-25T03:43:32.048Z,95.30
2022-10-25T03:45:58.985Z,95.40
2022-10-25T03:48:25.854Z,95.50
2022-10-25T03:50:54.295Z,95.40
2022-10-25T03:53:21.383Z,95.50
2022-10-25T03:55:48.328Z,95.50
2022-10-25T03:58:15.347Z,95.40
2022-10-25T04:00:42.282Z,95.50
2022-10-25T04:03:09.499Z,95.50
2022-10-25T04:05:36.371Z,95.50
2022-10-25T04:08:03.389Z,95.50
2022-10-25T04:10:30.262Z,95.50
2022-10-25T04:12:57.137Z,95.50
2022-10-25T04:15:24.961Z,95.50
2022-10-25T04:17:53.388Z,95.50
2022-10-25T04:20:20.509Z,95.60
2022-10-25T04:22:57.020Z,95.60
2022-10-25T04:25:26.899Z,95.70
2022-10-25T04:27:53.965Z,95.60
2022-10-25T04:30:20.881Z,95.60
2022-10-25T04:32:48.038Z,95.60
2022-10-25T04:35:15.099Z,95.70
2022-10-25T04:37:42.050Z,95.80
2022-10-25T04:40:09.899Z,95.80
2022-10-25T04:42:36.788Z,95.80
2022-10-25T04:45:03.836Z,95.90
2022-10-25T04:47:32.512Z,95.90
2022-10-25T04:49:59.436Z,95.90
2022-10-25T04:52:26.354Z,96.00
2022-10-25T04:54:53.218Z,96.00
2022-10-25T04:57:20.092Z,96.00
2022-10-25T04:59:46.942Z,96.00
2022-10-25T05:02:14.817Z,96.00
2022-10-25T05:04:42.529Z,96.10
2022-10-25T05:07:09.402Z,96.10
2022-10-25T05:09:36.277Z,96.10
2022-10-25T05:12:03.221Z,96.10
2022-10-25T05:14:30.112Z,96.10
2022-10-25T05:16:57.016Z,96.10
2022-10-25T05:19:23.925Z,96.00
2022-10-25T05:21:50.782Z,96.00
2022-10-25T05:24:17.977Z,96.00
2022-10-25T05:26:44.865Z,96.30
2022-10-25T05:29:12.971Z,96.00
2022-10-25T05:31:41.329Z,96.00
2022-10-25T05:34:09.799Z,96.00
2022-10-25T05:36:36.691Z,96.00
2022-10-25T05:39:03.843Z,95.90
2022-10-25T05:41:33.395Z,95.90
2022-10-25T05:44:03.174Z,96.00
2022-10-25T05:46:30.069Z,95.90
2022-10-25T05:48:59.636Z,96.00
2022-10-25T05:51:36.581Z,96.00
2022-10-25T05:54:12.696Z,96.00
2022-10-25T05:56:41.200Z,96.00
2022-10-25T05:59:15.225Z,96.00
2022-10-25T06:01:45.230Z,96.10
2022-10-25T06:04:12.909Z,96.10
2022-10-25T06:06:41.615Z,96.10
2022-10-25T06:09:09.139Z,96.10
2022-10-25T06:11:36.317Z,96.00
2022-10-25T06:14:03.708Z,96.10
2022-10-25T06:16:30.645Z,96.20
2022-10-25T06:18:57.825Z,96.10
2022-10-25T06:21:27.916Z,96.20
2022-10-25T06:23:55.109Z,96.20
2022-10-25T06:26:25.934Z,96.30
2022-10-25T06:28:55.730Z,96.30
2022-10-25T06:31:23.292Z,96.30
2022-10-25T06:33:50.177Z,96.40
2022-10-25T06:36:20.452Z,96.40
2022-10-25T06:38:48.471Z,96.40
2022-10-25T06:41:21.637Z,96.40
2022-10-25T06:43:49.496Z,96.50
2022-10-25T06:46:33.036Z,96.40
2022-10-25T06:49:02.146Z,96.50
2022-10-25T06:51:29.430Z,96.40
2022-10-25T06:53:57.800Z,96.40
2022-10-25T06:56:26.308Z,96.40
2022-10-25T06:58:53.321Z,96.40
2022-10-25T07:01:22.290Z,96.40
2022-10-25T07:03:50.893Z,96.40
2022-10-25T07:06:22.868Z,96.40
2022-10-25T07:08:58.674Z,96.50
2022-10-25T07:11:29.509Z,96.60
2022-10-25T07:13:58.596Z,96.60
2022-10-25T07:16:26.353Z,96.70
2022-10-25T07:18:58.081Z,96.80
2022-10-25T07:21:25.071Z,96.80
2022-10-25T07:23:52.068Z,96.90
2022-10-25T07:26:21.991Z,96.90
2022-10-25T07:28:50.853Z,96.90
2022-10-25T07:31:27.279Z,96.90
2022-10-25T07:33:56.685Z,96.90
2022-10-25T07:36:23.566Z,96.80
2022-10-25T07:38:50.496Z,96.70
2022-10-25T07:41:17.402Z,96.80
2022-10-25T07:43:44.797Z,96.70
2022-10-25T07:46:11.741Z,96.70
2022-10-25T07:48:38.618Z,96.60
2022-10-25T07:51:09.571Z,96.50
2022-10-25T07:53:36.427Z,96.60
2022-10-25T07:56:03.727Z,96.50
2022-10-25T07:58:30.611Z,96.50
2022-10-25T08:01:06.598Z,96.50
2022-10-25T08:03:33.684Z,96.50
2022-10-25T08:06:01.194Z,96.50
2022-10-25T08:08:29.684Z,96.40
2022-10-25T08:10:57.415Z,96.40
2022-10-25T08:13:24.500Z,96.40
2022-10-25T08:15:55.836Z,96.40
2022-10-25T08:18:24.470Z,96.40
2022-10-25T08:21:06.758Z,96.30
2022-10-25T08:23:33.750Z,95.90
2022-10-25T08:26:02.176Z,95.90
2022-10-25T08:28:31.246Z,96.00
2022-10-25T08:30:58.701Z,96.10
2022-10-25T08:33:25.632Z,96.00
2022-10-25T08:35:52.471Z,96.00
2022-10-25T08:38:19.359Z,96.00
2022-10-25T08:41:03.425Z,95.80
2022-10-25T08:43:51.052Z,95.80
2022-10-25T08:46:28.245Z,95.90
2022-10-25T08:49:19.607Z,95.50
2022-10-25T08:51:48.644Z,95.50
2022-10-25T08:54:25.040Z,95.40
2022-10-25T08:57:15.195Z,94.90
2022-10-25T08:59:49.466Z,94.80
2022-10-25T09:02:40.825Z,94.60
2022-10-25T09:05:33.228Z,94.30
2022-10-25T09:08:22.456Z,94.10
2022-10-25T09:10:58.249Z,94.30
2022-10-25T09:13:43.605Z,94.40
2022-10-25T09:16:25.197Z,94.30
2022-10-25T09:18:57.174Z,94.10
2022-10-25T09:21:45.932Z,94.00
2022-10-25T09:24:27.402Z,93.90
2022-10-25T09:27:28.452Z,93.80
2022-10-25T09:30:10.771Z,93.60
2022-10-25T09:32:56.852Z,93.70
2022-10-25T09:35:41.231Z,93.60
2022-10-25T09:38:18.010Z,93.50
2022-10-25T09:41:06.404Z,93.60
2022-10-25T09:43:42.780Z,93.20
2022-10-25T09:46:18.881Z,93.40
2022-10-25T09:48:56.688Z,93.40
2022-10-25T09:51:38.714Z,93.40
2022-10-25T09:54:21.055Z,93.20
2022-10-25T09:56:47.952Z,93.10
2022-10-25T09:59:15.983Z,92.70
2022-10-25T10:01:43.583Z,92.70
2022-10-25T10:04:37.114Z,92.30
2022-10-25T10:07:12.292Z,92.40
2022-10-25T10:09:45.571Z,92.50
2022-10-25T10:12:22.659Z,92.50
2022-10-25T10:14:58.384Z,92.40
2022-10-25T10:17:27.284Z,92.00
2022-10-25T10:20:18.636Z,91.90
2022-10-25T10:22:54.776Z,91.80
2022-10-25T10:25:26.547Z,92.00
2022-10-25T10:27:56.918Z,92.20
2022-10-25T10:30:29.568Z,92.30
2022-10-25T10:33:03.101Z,91.90
2022-10-25T10:35:36.329Z,92.40
2022-10-25T10:38:24.827Z,92.10
2022-10-25T10:41:23.379Z,91.90
2022-10-25T10:44:07.339Z,92.00
2022-10-25T10:46:34.282Z,92.10
2022-10-25T10:49:02.686Z,92.10
2022-10-25T10:51:45.366Z,92.00
2022-10-25T10:54:30.042Z,91.90
2022-10-25T10:57:03.721Z,91.90
2022-10-25T10:59:40.086Z,91.80
2022-10-25T11:02:20.614Z,92.00
2022-10-25T11:04:49.557Z,91.70
2022-10-25T11:07:35.800Z,91.80
2022-10-25T11:10:21.223Z,91.70
2022-10-25T11:13:08.839Z,91.50
2022-10-25T11:15:52.705Z,91.60
2022-10-25T11:18:50.078Z,91.70
2022-10-25T11:22:01.970Z,91.80
2022-10-25T11:25:00.470Z,91.40
2022-10-25T11:28:04.133Z,91.40
2022-10-25T11:30:44.005Z,91.40
2022-10-25T11:33:42.629Z,91.50
2022-10-25T11:36:35.517Z,91.40
2022-10-25T11:39:34.928Z,91.70
2022-10-25T11:42:30.667Z,91.40
2022-10-25T11:45:27.494Z,91.60
2022-10-25T11:48:40.491Z,91.70
2022-10-25T11:51:39.054Z,91.70
2022-10-25T11:54:44.212Z,91.70
2022-10-25T11:57:45.416Z,91.70
2022-10-25T12:00:17.701Z,91.80
2022-10-25T12:03:20.256Z,91.90
2022-10-25T12:06:09.879Z,91.90
2022-10-25T12:09:29.883Z,92.00
2022-10-25T12:12:10.049Z,91.90
2022-10-25T12:14:42.336Z,91.90
2022-10-25T12:17:26.118Z,91.90
2022-10-25T12:19:57.230Z,91.70
2022-10-25T12:22:30.593Z,91.70
2022-10-25T12:25:28.512Z,91.50
2022-10-25T12:28:20.291Z,91.50
2022-10-25T12:30:48.590Z,91.50
2022-10-25T12:33:35.279Z,91.60
2022-10-25T12:36:22.491Z,91.50
2022-10-25T12:38:49.351Z,91.60
2022-10-25T12:41:25.476Z,91.70
2022-10-25T12:44:36.604Z,91.70
2022-10-25T12:47:56.704Z,91.50
2022-10-25T12:50:53.572Z,91.10
2022-10-25T12:53:54.166Z,90.90
2022-10-25T12:56:36.112Z,90.80
2022-10-25T12:59:35.304Z,90.80
2022-10-25T13:02:39.110Z,90.50
2022-10-25T13:05:40.397Z,90.60
2022-10-25T13:08:08.046Z,90.80
2022-10-25T13:10:43.208Z,90.90
2022-10-25T13:13:33.626Z,90.80
2022-10-25T13:16:04.445Z,90.90
2022-10-25T13:18:34.269Z,90.90
2022-10-25T13:21:17.140Z,90.90
2022-10-25T13:23:44.154Z,90.80
2022-10-25T13:26:14.650Z,90.80
2022-10-25T13:28:51.372Z,91.00
2022-10-25T13:31:33.455Z,91.00
2022-10-25T13:34:12.124Z,91.10
2022-10-25T13:36:59.181Z,91.20
2022-10-25T13:39:34.689Z,91.10
2022-10-25T13:42:15.383Z,91.10
2022-10-25T13:44:55.735Z,90.80
2022-10-25T13:47:43.307Z,90.80
2022-10-25T13:50:30.787Z,90.90
2022-10-25T13:53:13.871Z,90.90
2022-10-25T13:55:53.892Z,90.90
2022-10-25T13:58:31.964Z,91.00
2022-10-25T14:01:19.235Z,90.90
2022-10-25T14:04:01.776Z,91.00
2022-10-25T14:06:33.703Z,91.20
2022-10-25T14:09:25.040Z,91.10
2022-10-25T14:12:11.997Z,91.00
2022-10-25T14:15:13.573Z,91.00
2022-10-25T14:17:44.871Z,91.10
2022-10-25T14:20:28.060Z,91.00
2022-10-25T14:23:08.047Z,91.00
2022-10-25T14:25:41.730Z,90.90
2022-10-25T14:28:16.491Z,90.90
2022-10-25T14:30:47.922Z,90.70
2022-10-25T14:33:36.632Z,90.70
2022-10-25T14:36:06.126Z,90.50
2022-10-25T14:38:49.777Z,90.30
2022-10-25T14:41:31.370Z,90.30
2022-10-25T14:43:58.565Z,90.10
2022-10-25T14:46:30.053Z,90.10
2022-10-25T14:48:59.144Z,90.10
2022-10-25T14:51:36.180Z,90.00
2022-10-25T14:54:07.013Z,90.00
2022-10-25T14:56:46.819Z,90.00
2022-10-25T14:59:31.484Z,90.00
2022-10-25T15:02:03.182Z,90.00
2022-10-25T15:04:34.590Z,90.10
2022-10-25T15:07:02.719Z,90.10
2022-10-25T15:09:42.439Z,90.20
2022-10-25T15:12:17.147Z,90.20
2022-10-25T15:14:46.515Z,90.20
2022-10-25T15:17:22.511Z,90.30
2022-10-25T15:20:01.961Z,90.40
2022-10-25T15:22:46.369Z,90.50
2022-10-25T15:25:22.283Z,90.50
2022-10-25T15:27:52.297Z,90.60
2022-10-25T15:30:50.289Z,90.70
2022-10-25T15:33:21.883Z,90.50
2022-10-25T15:35:59.160Z,90.50
2022-10-25T15:39:05.493Z,90.60
2022-10-25T15:41:22.940Z,90.60
2022-10-25T15:43:49.857Z,91.00
2022-10-25T15:46:25.728Z,90.70
2022-10-25T15:48:53.233Z,90.70
2022-10-25T15:51:20.563Z,90.80
2022-10-25T15:53:47.701Z,90.80
2022-10-25T15:56:18.809Z,90.90
2022-10-25T15:58:45.706Z,90.90
2022-10-25T16:01:13.314Z,90.90
2022-10-25T16:03:40.285Z,90.90
2022-10-25T16:06:13.274Z,90.90
2022-10-25T16:08:41.727Z,90.90
2022-10-25T16:11:16.819Z,90.90
2022-10-25T16:13:45.937Z,91.00
2022-10-25T16:16:39.469Z,91.10
2022-10-25T16:19:13.640Z,91.10
2022-10-25T16:21:40.524Z,91.10
2022-10-25T16:24:07.436Z,91.10
2022-10-25T16:26:38.292Z,91.10
2022-10-25T16:29:06.408Z,91.20
2022-10-25T16:31:33.323Z,91.20
2022-10-25T16:34:00.212Z,91.20
2022-10-25T16:36:27.112Z,91.20
2022-10-25T16:38:53.967Z,91.30
2022-10-25T16:41:29.419Z,91.30
2022-10-25T16:43:58.161Z,91.40
2022-10-25T16:46:26.143Z,91.30
2022-10-25T16:48:54.225Z,91.40
2022-10-25T16:51:24.846Z,91.40
2022-10-25T16:53:51.940Z,91.40
2022-10-25T16:56:18.993Z,91.50
2022-10-25T16:58:46.024Z,91.50
2022-10-25T17:01:29.012Z,91.60
2022-10-25T17:03:56.225Z,91.70
2022-10-25T17:09:11.029Z,91.70
2022-10-25T17:11:37.924Z,91.80
2022-10-25T17:14:05.724Z,91.90
2022-10-25T17:16:33.307Z,91.90
2022-10-25T17:19:00.544Z,92.00
2022-10-25T17:21:28.376Z,92.10
2022-10-25T17:23:56.105Z,92.10
2022-10-25T17:26:23.013Z,92.10
2022-10-25T17:28:49.904Z,92.20
2022-10-25T17:31:17.295Z,92.20
2022-10-25T17:33:44.624Z,92.30
2022-10-25T17:36:18.436Z,92.30
2022-10-25T17:38:45.460Z,92.30
2022-10-25T17:41:13.176Z,92.30
2022-10-25T17:43:41.303Z,92.40
2022-10-25T17:46:16.911Z,92.40
2022-10-25T17:48:43.787Z,92.50
2022-10-25T17:51:13.283Z,92.50
2022-10-25T17:53:40.208Z,92.70
2022-10-25T17:56:18.267Z,92.80
2022-10-25T17:58:47.715Z,93.00
2022-10-25T18:01:25.186Z,93.00
2022-10-25T18:03:54.048Z,93.30
2022-10-25T18:06:23.710Z,93.30
2022-10-25T18:08:59.055Z,93.40
2022-10-25T18:11:28.316Z,93.60
2022-10-25T18:14:00.867Z,93.60
2022-10-25T18:16:30.999Z,93.70
2022-10-25T18:19:02.228Z,93.70
2022-10-25T18:21:29.554Z,93.80
2022-10-25T18:24:00.881Z,93.80
2022-10-25T18:26:28.228Z,93.80
2022-10-25T18:28:57.037Z,93.80
2022-10-25T18:31:26.915Z,93.90
2022-10-25T18:34:03.216Z,94.00
2022-10-25T18:36:30.915Z,94.10
2022-10-25T18:38:57.897Z,94.10
2022-10-25T18:41:29.214Z,94.10
2022-10-25T18:43:56.348Z,94.10
2022-10-25T18:46:25.138Z,94.10
2022-10-25T18:48:53.268Z,94.10
2022-10-25T18:51:22.261Z,94.10
2022-10-25T18:53:56.495Z,94.10
2022-10-25T18:56:23.757Z,94.20
2022-10-25T18:58:51.097Z,94.20
2022-10-25T19:01:22.802Z,94.20
2022-10-25T19:03:50.519Z,94.30
2022-10-25T19:06:18.171Z,94.30
2022-10-25T19:08:45.094Z,94.30
2022-10-25T19:11:13.696Z,94.30
2022-10-25T19:13:41.207Z,94.30
2022-10-25T19:16:09.461Z,94.30
2022-10-25T19:18:37.518Z,94.40
2022-10-25T19:21:13.653Z,94.40
2022-10-25T19:23:42.712Z,94.60
2022-10-25T19:26:14.068Z,94.50
2022-10-25T19:28:40.946Z,94.50
2022-10-25T19:31:14.503Z,94.60
2022-10-25T19:33:46.310Z,94.70
2022-10-25T19:36:13.515Z,94.80
2022-10-25T19:38:40.786Z,94.70
2022-10-25T19:41:10.408Z,94.70
2022-10-25T19:43:37.366Z,94.70
2022-10-25T19:46:07.169Z,94.60
2022-10-25T19:48:34.899Z,94.60
2022-10-25T19:51:10.821Z,94.60
2022-10-25T19:53:38.230Z,94.70
2022-10-25T19:56:09.686Z,94.70
2022-10-25T19:58:36.895Z,94.80
2022-10-25T20:01:13.872Z,94.80
2022-10-25T20:03:41.841Z,95.00
2022-10-25T20:06:12.757Z,94.90
2022-10-25T20:08:40.867Z,95.10
2022-10-25T20:11:10.817Z,95.20
2022-10-25T20:13:38.171Z,95.20
2022-10-25T20:16:06.443Z,95.20
2022-10-25T20:18:37.393Z,95.20
2022-10-25T20:21:18.832Z,95.70
2022-10-25T20:23:50.871Z,95.50
2022-10-25T20:26:31.225Z,95.40
2022-10-25T20:29:02.193Z,95.50
2022-10-25T20:31:32.550Z,95.30
2022-10-25T20:34:00.112Z,95.30
2022-10-25T20:36:27.056Z,95.30
2022-10-25T20:38:53.961Z,95.30
2022-10-25T20:41:27.492Z,95.30
2022-10-25T20:43:59.810Z,95.40
2022-10-25T20:46:28.494Z,95.30
2022-10-25T20:48:56.975Z,95.30
2022-10-25T20:51:24.068Z,95.40
2022-10-25T20:53:51.216Z,95.40
2022-10-25T20:56:19.846Z,95.50
2022-10-25T20:58:47.128Z,95.50
2022-10-25T21:01:14.211Z,95.50
2022-10-25T21:03:41.696Z,95.90
2022-10-25T21:06:12.251Z,95.60
2022-10-25T21:08:39.556Z,95.70
2022-10-25T21:11:09.561Z,95.70
2022-10-25T21:13:37.265Z,95.80
2022-10-25T21:16:10.296Z,95.90
2022-10-25T21:18:37.630Z,96.00
2022-10-25T21:21:08.438Z,95.90
2022-10-25T21:23:35.676Z,96.00
2022-10-25T21:26:06.659Z,96.10
2022-10-25T21:28:36.904Z,96.40
2022-10-25T21:31:11.701Z,96.10
2022-10-25T21:33:39.145Z,96.00
2022-10-25T21:36:14.815Z,96.00
2022-10-25T21:38:42.358Z,96.20
2022-10-25T21:41:14.461Z,96.00
2022-10-25T21:43:44.552Z,96.10
2022-10-25T21:46:12.563Z,96.00
2022-10-25T21:48:39.711Z,96.00
2022-10-25T21:51:07.082Z,96.00
2022-10-25T21:53:33.999Z,96.00
2022-10-25T21:56:12.609Z,96.00
2022-10-25T21:58:41.425Z,96.40
2022-10-25T22:01:17.273Z,96.10
2022-10-25T22:03:44.338Z,96.30
2022-10-25T22:06:17.746Z,96.20
2022-10-25T22:08:44.943Z,96.20
2022-10-25T22:11:14.296Z,96.50
2022-10-25T22:13:41.618Z,96.20
2022-10-25T22:16:19.144Z,96.20
2022-10-25T22:19:02.903Z,96.30
2022-10-25T22:21:40.927Z,96.20
2022-10-25T22:24:09.644Z,96.10
2022-10-25T22:26:38.610Z,96.00
2022-10-25T22:29:05.778Z,96.00
2022-10-25T22:31:33.554Z,96.00
2022-10-25T22:34:03.560Z,95.90
2022-10-25T22:36:34.011Z,96.00
2022-10-25T22:39:00.994Z,95.90
2022-10-25T22:41:30.146Z,95.90
2022-10-25T22:43:58.363Z,96.00
2022-10-25T22:46:35.929Z,96.00
2022-10-25T22:49:08.567Z,96.10
2022-10-25T22:51:36.594Z,96.00
2022-10-25T22:54:03.739Z,96.00
2022-10-25T22:56:31.278Z,95.90
2022-10-25T22:59:01.612Z,95.90
2022-10-25T23:01:31.689Z,96.00
2022-10-25T23:04:00.435Z,96.10
2022-10-25T23:06:30.734Z,96.10
2022-10-25T23:09:03.628Z,96.20
2022-10-25T23:11:33.567Z,96.20
2022-10-25T23:14:01.383Z,96.20
2022-10-25T23:16:29.615Z,96.20
2022-10-25T23:18:57.044Z,96.20
2022-10-25T23:21:26.790Z,96.30
2022-10-25T23:23:54.960Z,96.30
2022-10-25T23:26:31.778Z,96.30
2022-10-25T23:29:00.140Z,96.30
2022-10-25T23:31:27.299Z,96.30
2022-10-25T23:33:56.982Z,96.30
2022-10-25T23:36:28.012Z,96.30
2022-10-25T23:38:55.765Z,96.40
2022-10-25T23:41:23.338Z,96.40
2022-10-25T23:43:50.357Z,96.40
2022-10-25T23:46:17.240Z,96.40
2022-10-25T23:48:44.113Z,96.40
2022-10-25T23:51:14.902Z,96.40
2022-10-25T23:53:42.362Z,96.40
2022-10-25T23:56:11.985Z,96.30
2022-10-25T23:58:39.594Z,96.40
